Time;durP1;ratioP1;P1;durP2;ratioP2;P2;SDS_P1;SDS_P2;PMS_P1;PMS_P2;Temp;Humidity;BMP_temperature;BMP_pressure;BME280_temperature;BME280_humidity;BME280_pressure;Samples;Min_cycle;Max_cycle;Signal;HPM_P1;HPM_P2
2023/06/09 00:02:44;;;;;;;;;;;;;;;23.13;43.20;95351.59;10314172;28;1906;-64
2023/06/09 00:07:45;;;;;;;;;;;;;;;23.13;43.09;95359.53;10311927;28;1402;-64
2023/06/09 00:12:47;;;;;;;;;;;;;;;23.14;43.15;95361.88;10313966;28;1521;-65
2023/06/09 00:17:48;;;;;;;;;;;;;;;23.13;43.22;95356.88;10303766;28;1370;-65
2023/06/09 00:22:48;;;;;;;;;;;;;;;23.14;43.15;95353.19;10314582;28;2621;-64
2023/06/09 00:27:48;;;;;;;;;;;;;;;23.12;43.48;95355.34;10311303;28;1380;-64
2023/06/09 00:32:49;;;;;;;;;;;;;;;23.14;43.35;95358.47;10317101;28;1190;-65
2023/06/09 00:37:49;;;;;;;;;;;;;;;23.13;43.12;95347.09;10310225;28;1413;-64
2023/06/09 00:42:49;;;;;;;;;;;;;;;23.12;43.12;95350.81;10300053;28;1895;-64
2023/06/09 00:47:50;;;;;;;;;;;;;;;23.13;43.40;95365.59;10313440;28;1143;-64
2023/06/09 00:52:51;;;;;;;;;;;;;;;23.13;43.19;95362.19;10307156;28;1524;-64
2023/06/09 00:57:55;;;;;;;;;;;;;;;23.13;43.11;95359.53;10306456;28;1155;-64
2023/06/09 01:03:00;;;;;;;;;;;;;;;23.12;43.31;95361.38;10296367;28;1902;-64
2023/06/09 01:08:04;;;;;;;;;;;;;;;23.13;43.42;95362.19;10320516;28;1163;-64
2023/06/09 01:13:10;;;;;;;;;;;;;;;23.13;43.40;95367.47;10301086;28;1593;-64
2023/06/09 01:18:12;;;;;;;;;;;;;;;23.13;43.47;95362.19;10316226;28;1473;-64
2023/06/09 01:23:25;;;;;;;;;;;;;;;23.13;43.16;95356.88;10314570;28;2705;-64
2023/06/09 01:28:26;;;;;;;;;;;;;;;23.13;43.33;95356.88;10318769;28;1286;-65
2023/06/09 01:33:27;;;;;;;;;;;;;;;23.12;43.22;95356.09;10304203;28;1548;-64
2023/06/09 01:38:28;;;;;;;;;;;;;;;23.13;43.23;95356.88;10319812;28;1304;-64
2023/06/09 01:43:28;;;;;;;;;;;;;;;23.13;43.26;95356.88;10296909;28;4718;-64
2023/06/09 01:48:28;;;;;;;;;;;;;;;23.12;43.00;95350.81;10319072;28;1071;-64
2023/06/09 01:53:30;;;;;;;;;;;;;;;23.12;43.00;95355.34;10311987;28;1575;-64
2023/06/09 01:58:32;;;;;;;;;;;;;;;23.11;43.03;95359.84;10312165;28;1120;-64
2023/06/09 02:03:32;;;;;;;;;;;;;;;23.11;43.13;95367.78;10304521;28;1966;-64
2023/06/09 02:08:32;;;;;;;;;;;;;;;23.11;42.98;95359.03;10300711;28;1187;-65
2023/06/09 02:13:33;;;;;;;;;;;;;;;23.10;42.94;95352.22;10304082;28;1652;-64
2023/06/09 02:18:33;;;;;;;;;;;;;;;23.11;43.21;95362.47;10317504;28;2396;-64
2023/06/09 02:23:33;;;;;;;;;;;;;;;23.11;42.86;95369.63;10314468;28;1910;-65
2023/06/09 02:28:34;;;;;;;;;;;;;;;23.11;42.85;95365.13;10316349;28;1381;-64
2023/06/09 02:33:35;;;;;;;;;;;;;;;23.11;43.02;95369.63;10317395;28;1143;-65
2023/06/09 02:38:35;;;;;;;;;;;;;;;23.11;42.85;95374.91;10331863;28;1498;-64
2023/06/09 02:43:36;;;;;;;;;;;;;;;23.10;43.10;95376.00;10331801;28;4686;-64
2023/06/09 02:48:36;;;;;;;;;;;;;;;23.10;42.86;95374.13;10325164;28;1191;-64
2023/06/09 02:53:36;;;;;;;;;;;;;;;23.10;42.90;95373.38;10312049;28;1389;-64
2023/06/09 02:58:36;;;;;;;;;;;;;;;23.10;42.87;95373.38;10316912;28;1099;-64
2023/06/09 03:03:38;;;;;;;;;;;;;;;23.10;42.72;95376.00;10309965;28;1895;-64
2023/06/09 03:08:38;;;;;;;;;;;;;;;23.09;42.94;95377.06;10309281;28;1329;-64
2023/06/09 03:13:38;;;;;;;;;;;;;;;23.09;42.71;95382.34;10311535;28;2324;-64
2023/06/09 03:18:39;;;;;;;;;;;;;;;23.09;43.01;95375.22;10307335;28;1176;-64
2023/06/09 03:23:40;;;;;;;;;;;;;;;23.09;42.66;95377.84;10307557;28;1906;-64
2023/06/09 03:28:40;;;;;;;;;;;;;;;23.09;42.60;95388.44;10307590;28;1465;-65
2023/06/09 03:33:41;;;;;;;;;;;;;;;23.09;42.77;95387.66;10286454;28;7616;-64
2023/06/09 03:38:41;;;;;;;;;;;;;;;23.09;42.62;95395.56;10300956;28;7588;-64
2023/06/09 03:43:41;;;;;;;;;;;;;;;23.10;42.64;95397.16;10306023;28;7592;-64
2023/06/09 03:48:41;;;;;;;;;;;;;;;23.10;42.60;95399.81;10314248;28;7727;-65
2023/06/09 03:53:42;;;;;;;;;;;;;;;23.09;42.66;95406.16;10307907;28;1497;-64
2023/06/09 03:58:42;;;;;;;;;;;;;;;23.09;42.81;95403.50;10306228;28;1362;-64
2023/06/09 04:03:42;;;;;;;;;;;;;;;23.09;42.75;95406.16;10313936;28;1906;-64
2023/06/09 04:08:44;;;;;;;;;;;;;;;23.09;42.55;95403.50;10305708;28;5304;-64
2023/06/09 04:13:44;;;;;;;;;;;;;;;23.09;42.92;95408.81;10309980;28;1425;-64
2023/06/09 04:18:46;;;;;;;;;;;;;;;23.09;42.81;95406.16;10312689;28;1417;-64
2023/06/09 04:23:46;;;;;;;;;;;;;;;23.09;42.62;95403.50;10300498;28;1363;-64
2023/06/09 04:28:46;;;;;;;;;;;;;;;23.08;42.61;95402.72;10315877;28;1391;-64
2023/06/09 04:33:48;;;;;;;;;;;;;;;23.10;42.80;95405.09;10320400;28;1476;-64
2023/06/09 04:38:49;;;;;;;;;;;;;;;23.09;42.83;95399.00;10320815;28;1883;-64
2023/06/09 04:43:49;;;;;;;;;;;;;;;23.10;42.73;95405.09;10316376;28;6270;-63
2023/06/09 04:48:51;;;;;;;;;;;;;;;23.09;42.68;95412.22;10321017;28;1143;-64
2023/06/09 04:53:53;;;;;;;;;;;;;;;23.10;42.67;95415.66;10317986;28;1484;-64
2023/06/09 04:58:53;;;;;;;;;;;;;;;23.11;42.85;95422.50;10320423;28;1887;-64
2023/06/09 05:03:54;;;;;;;;;;;;;;;23.10;42.74;95423.59;10320057;28;1052;-64
2023/06/09 05:08:55;;;;;;;;;;;;;;;23.10;43.11;95423.59;10306165;28;1385;-64
2023/06/09 05:13:55;;;;;;;;;;;;;;;23.12;42.87;95429.38;10316664;28;1408;-63
2023/06/09 05:18:56;;;;;;;;;;;;;;;23.10;42.96;95427.00;10319702;28;1952;-64
2023/06/09 05:23:56;;;;;;;;;;;;;;;23.10;42.94;95434.94;10315337;28;1164;-64
2023/06/09 05:28:56;;;;;;;;;;;;;;;23.12;42.99;95443.34;10313912;28;1468;-63
2023/06/09 05:33:56;;;;;;;;;;;;;;;23.12;43.13;95435.41;10320191;28;1508;-64
2023/06/09 05:38:57;;;;;;;;;;;;;;;23.13;43.00;95444.13;10318114;28;2222;-64
2023/06/09 05:43:57;;;;;;;;;;;;;;;23.13;43.08;95444.13;10315325;28;5517;-64
2023/06/09 05:48:58;;;;;;;;;;;;;;;23.13;43.09;95437.00;10318765;28;1179;-64
2023/06/09 05:53:58;;;;;;;;;;;;;;;23.13;43.16;95436.22;10312165;28;1465;-64
2023/06/09 05:59:02;;;;;;;;;;;;;;;23.13;43.09;95444.13;10318161;28;1949;-64
2023/06/09 06:04:02;;;;;;;;;;;;;;;23.14;43.35;95441.19;10317229;28;1502;-64
2023/06/09 06:09:03;;;;;;;;;;;;;;;23.13;43.34;95447.56;10316652;28;1354;-64
2023/06/09 06:14:03;;;;;;;;;;;;;;;23.14;42.98;95449.13;10310702;28;1341;-64
2023/06/09 06:19:04;;;;;;;;;;;;;;;23.14;43.26;95449.13;10317472;28;1899;-64
2023/06/09 06:24:04;;;;;;;;;;;;;;;23.14;43.39;95445.72;10317767;28;1630;-64
2023/06/09 06:29:04;;;;;;;;;;;;;;;23.14;43.34;95443.06;10312943;28;1405;-64
2023/06/09 06:34:04;;;;;;;;;;;;;;;23.14;43.04;95445.72;10317619;28;2293;-64
2023/06/09 06:39:05;;;;;;;;;;;;;;;23.14;43.49;95443.84;10316003;28;1887;-64
2023/06/09 06:44:06;;;;;;;;;;;;;;;23.14;43.21;95443.84;10309153;28;1434;-64
2023/06/09 06:49:06;;;;;;;;;;;;;;;23.14;43.35;95443.84;10316523;28;1155;-64
2023/06/09 06:54:06;;;;;;;;;;;;;;;23.14;43.20;95443.84;10307969;28;1356;-64
2023/06/09 06:59:07;;;;;;;;;;;;;;;23.15;43.29;95449.91;10315934;28;1891;-64
2023/06/09 07:04:07;;;;;;;;;;;;;;;23.12;43.43;95442.59;10313746;28;1442;-64
2023/06/09 07:09:08;;;;;;;;;;;;;;;23.15;43.33;95458.63;10314490;28;1353;-64
2023/06/09 07:14:08;;;;;;;;;;;;;;;23.15;43.57;95460.50;10310991;28;1423;-64
2023/06/09 07:19:09;;;;;;;;;;;;;;;23.15;43.45;95458.63;10315515;28;1907;-63
2023/06/09 07:24:09;;;;;;;;;;;;;;;23.15;43.54;95460.50;10309119;28;1398;-64
2023/06/09 07:29:10;;;;;;;;;;;;;;;23.15;43.35;95460.50;10314207;28;2145;-64
2023/06/09 07:34:10;;;;;;;;;;;;;;;23.15;43.22;95460.50;10313117;28;1317;-64
2023/06/09 07:39:10;;;;;;;;;;;;;;;23.15;43.15;95461.28;10315094;28;1949;-63
2023/06/09 07:44:11;;;;;;;;;;;;;;;23.15;43.27;95455.19;10309197;28;5163;-64
2023/06/09 07:49:11;;;;;;;;;;;;;;;23.16;43.24;95456.78;10314135;28;1374;-63
2023/06/09 07:54:11;;;;;;;;;;;;;;;23.16;43.49;95451.50;10311757;28;1183;-63
2023/06/09 07:59:12;;;;;;;;;;;;;;;23.16;43.49;95446.19;10308757;28;1918;-63
2023/06/09 08:04:12;;;;;;;;;;;;;;;23.16;43.42;95454.13;10317929;28;1135;-65
2023/06/09 08:09:12;;;;;;;;;;;;;;;23.15;43.40;95449.91;10314111;28;1368;-65
2023/06/09 08:14:13;;;;;;;;;;;;;;;23.15;43.54;95444.63;10307620;28;1418;-65
2023/06/09 08:19:13;;;;;;;;;;;;;;;23.17;43.49;95442.47;10316830;28;1908;-65
2023/06/09 08:24:13;;;;;;;;;;;;;;;23.16;43.32;95443.56;10319672;28;1191;-64
2023/06/09 08:29:15;;;;;;;;;;;;;;;23.16;43.61;95449.59;10319537;28;1394;-64
2023/06/09 08:34:15;;;;;;;;;;;;;;;23.18;43.27;95449.34;10319620;28;1425;-65
2023/06/09 08:39:15;;;;;;;;;;;;;;;23.17;43.45;95447.75;10319861;28;1966;-64
2023/06/09 08:44:16;;;;;;;;;;;;;;;23.17;43.60;95440.59;10317462;28;5041;-64
2023/06/09 08:49:16;;;;;;;;;;;;;;;23.17;43.62;95442.47;10305691;28;1386;-64
2023/06/09 08:54:17;;;;;;;;;;;;;;;23.18;43.52;95438.75;10307442;28;1370;-64
2023/06/09 08:59:17;;;;;;;;;;;;;;;23.17;43.59;95437.97;10321602;28;1891;-64
2023/06/09 09:04:18;;;;;;;;;;;;;;;23.18;43.47;95434.25;10310658;28;1384;-64
2023/06/09 09:09:18;;;;;;;;;;;;;;;23.17;43.31;95434.53;10322021;28;1077;-64
2023/06/09 09:14:18;;;;;;;;;;;;;;;23.18;43.38;95428.97;10315905;28;1416;-64
2023/06/09 09:19:28;;;;;;;;;;;;;;;23.19;43.40;95432.38;10320031;28;1910;-63
2023/06/09 09:24:29;;;;;;;;;;;;;;;23.18;43.43;95421.03;10334774;28;2317;-64
2023/06/09 09:29:29;;;;;;;;;;;;;;;23.19;43.34;95412.00;10312163;28;1303;-64
2023/06/09 09:34:30;;;;;;;;;;;;;;;23.19;43.81;95414.66;10321474;28;1183;-64
2023/06/09 09:39:30;;;;;;;;;;;;;;;23.20;43.78;95410.94;10318044;28;1914;-64
2023/06/09 09:44:40;;;;;;;;;;;;;;;23.20;43.83;95410.16;10304981;28;1436;-64
2023/06/09 09:49:52;;;;;;;;;;;;;;;23.20;43.54;95403.00;10312196;28;1096;-64
2023/06/09 09:54:53;;;;;;;;;;;;;;;23.21;43.62;95409.06;10317554;28;1329;-64
2023/06/09 09:59:53;;;;;;;;;;;;;;;23.21;43.74;95406.41;10318934;28;1972;-64
2023/06/09 10:04:53;;;;;;;;;;;;;;;23.21;43.67;95403.78;10313424;28;1426;-65
2023/06/09 10:09:54;;;;;;;;;;;;;;;23.21;44.05;95390.53;10305236;28;1171;-63
2023/06/09 10:14:54;;;;;;;;;;;;;;;23.22;43.81;95392.13;10315247;28;1332;-65
2023/06/09 10:19:55;;;;;;;;;;;;;;;23.21;43.84;95380.75;10306029;28;2411;-65
2023/06/09 10:24:55;;;;;;;;;;;;;;;23.22;43.86;95389.47;10317125;28;1111;-65
2023/06/09 10:29:56;;;;;;;;;;;;;;;23.22;44.15;95386.84;10310016;28;1410;-64
2023/06/09 10:34:56;;;;;;;;;;;;;;;23.22;43.92;95376.25;10303654;28;1236;-65
2023/06/09 10:40:15;;;;;;;;;;;;;;;23.21;43.90;95380.75;10295151;28;5010;-65
2023/06/09 10:45:17;;;;;;;;;;;;;;;23.23;44.04;95372.53;10284751;28;2023;-65
2023/06/09 10:50:30;;;;;;;;;;;;;;;23.23;44.25;95372.53;10314095;28;1112;-64
2023/06/09 10:55:30;;;;;;;;;;;;;;;23.24;44.14;95371.44;10311681;28;1468;-64
2023/06/09 11:00:51;;;;;;;;;;;;;;;23.24;44.22;95376.75;10299285;28;1941;-64
2023/06/09 11:05:58;;;;;;;;;;;;;;;23.24;43.90;95369.59;10296620;28;1703;-64
2023/06/09 11:10:59;;;;;;;;;;;;;;;23.26;43.97;95361.34;10303223;28;1100;-64
2023/06/09 11:16:03;;;;;;;;;;;;;;;23.26;43.98;95356.06;10301715;28;1950;-64
2023/06/09 11:21:06;;;;;;;;;;;;;;;23.26;44.28;95353.44;10313626;28;1914;-64
2023/06/09 11:26:19;;;;;;;;;;;;;;;23.27;43.98;95347.03;10311448;28;1194;-66
2023/06/09 11:31:19;;;;;;;;;;;;;;;23.27;44.33;95347.81;10316082;28;1413;-64
2023/06/09 11:36:20;;;;;;;;;;;;;;;23.28;44.36;95343.31;10314813;28;1304;-64
2023/06/09 11:41:25;;;;;;;;;;;;;;;23.28;44.14;95349.41;10302752;28;5030;-64
2023/06/09 11:46:25;;;;;;;;;;;;;;;23.29;44.31;95339.59;10301808;28;1359;-64
2023/06/09 11:51:25;;;;;;;;;;;;;;;23.29;44.29;95334.28;10314822;28;1182;-64
2023/06/09 11:56:26;;;;;;;;;;;;;;;23.30;44.33;95341.16;10313423;28;1394;-64
2023/06/09 12:01:30;;;;;;;;;;;;;;;23.30;44.49;95325.28;10296798;28;1891;-64
2023/06/09 12:06:31;;;;;;;;;;;;;;;23.31;44.34;95330.28;10311556;28;1384;-64
2023/06/09 12:11:31;;;;;;;;;;;;;;;23.31;44.21;95318.91;10309752;28;2336;-64
2023/06/09 12:16:31;;;;;;;;;;;;;;;23.31;44.41;95326.84;10313475;28;1152;-64
2023/06/09 12:21:32;;;;;;;;;;;;;;;23.31;44.23;95317.06;10312249;28;1891;-64
2023/06/09 12:26:42;;;;;;;;;;;;;;;23.32;44.12;95325.81;10313278;28;1150;-64
2023/06/09 12:31:45;;;;;;;;;;;;;;;23.30;43.96;95315.50;10302883;28;1386;-64
2023/06/09 12:36:47;;;;;;;;;;;;;;;23.32;44.01;95315.22;10311209;28;1464;-64
2023/06/09 12:41:48;;;;;;;;;;;;;;;23.32;44.00;95317.88;10308222;28;5659;-63
2023/06/09 12:46:54;;;;;;;;;;;;;;;23.33;44.09;95314.13;10313675;28;1175;-63
2023/06/09 12:51:55;;;;;;;;;;;;;;;23.31;44.22;95308.34;10314299;28;1677;-63
2023/06/09 12:56:55;;;;;;;;;;;;;;;23.32;43.92;95299.34;10320412;28;1155;-63
2023/06/09 13:01:55;;;;;;;;;;;;;;;23.32;44.15;95286.13;10295800;28;1942;-63
2023/06/09 13:06:56;;;;;;;;;;;;;;;23.32;43.93;95296.72;10319584;28;1093;-63
2023/06/09 13:11:56;;;;;;;;;;;;;;;23.32;44.05;95302.78;10304352;28;1430;-63
2023/06/09 13:16:56;;;;;;;;;;;;;;;23.32;43.99;95294.06;10319474;28;1170;-63
2023/06/09 13:21:56;;;;;;;;;;;;;;;23.33;43.95;95282.41;10311178;28;1894;-63
2023/06/09 13:26:57;;;;;;;;;;;;;;;23.32;43.77;95286.94;10318763;28;1186;-63
2023/06/09 13:31:58;;;;;;;;;;;;;;;23.35;43.80;95282.88;10323282;28;1327;-63
2023/06/09 13:36:59;;;;;;;;;;;;;;;23.34;44.11;95283.97;10318698;28;1245;-63
2023/06/09 13:41:59;;;;;;;;;;;;;;;;;;10308233;28;5270;-63
2023/06/09 13:46:59;;;;;;;;;;;;;;;23.33;44.05;95267.31;10313697;28;1620;-63
2023/06/09 13:51:59;;;;;;;;;;;;;;;23.34;44.15;95268.09;10316537;28;1366;-63
2023/06/09 13:57:00;;;;;;;;;;;;;;;;;;10318640;28;1135;-63
2023/06/09 14:02:00;;;;;;;;;;;;;;;23.35;43.82;95269.66;10331382;28;1971;-63
2023/06/09 14:07:01;;;;;;;;;;;;;;;23.34;43.95;95265.47;10309526;28;2282;-63
2023/06/09 14:12:01;;;;;;;;;;;;;;;23.34;44.01;95265.47;10311041;28;1414;-63
2023/06/09 14:17:01;;;;;;;;;;;;;;;23.35;43.92;95259.06;10317229;28;1127;-63
2023/06/09 14:22:04;;;;;;;;;;;;;;;23.35;43.93;95253.78;10311835;28;1918;-63
2023/06/09 14:27:05;;;;;;;;;;;;;;;23.34;44.04;95252.22;10317059;28;1112;-63
2023/06/09 14:32:05;;;;;;;;;;;;;;;;;;10321859;28;1453;-63
2023/06/09 14:37:06;;;;;;;;;;;;;;;23.35;44.04;95251.94;10315035;28;1345;-63
2023/06/09 14:42:06;;;;;;;;;;;;;;;23.35;43.91;95243.19;10309329;28;5194;-64
2023/06/09 14:47:07;;;;;;;;;;;;;;;23.35;43.79;95238.69;10310950;28;1664;-63
2023/06/09 14:52:07;;;;;;;;;;;;;;;23.36;43.98;95244.78;10312224;28;1526;-63
2023/06/09 14:57:07;;;;;;;;;;;;;;;23.36;43.83;95234.19;10316290;28;1241;-63
2023/06/09 15:02:08;;;;;;;;;;;;;;;23.36;44.01;95242.13;10313382;28;2270;-63
2023/06/09 15:07:10;;;;;;;;;;;;;;;23.37;43.78;95235.75;10313310;28;1393;-63
2023/06/09 15:12:10;;;;;;;;;;;;;;;23.36;44.06;95239.50;10303734;28;1406;-63
2023/06/09 15:17:11;;;;;;;;;;;;;;;23.37;44.02;95243.69;10315385;28;1122;-63
2023/06/09 15:22:11;;;;;;;;;;;;;;;23.37;43.86;95246.31;10313182;28;1962;-62
2023/06/09 15:27:11;;;;;;;;;;;;;;;23.36;43.91;95236.84;10308972;28;1429;-64
2023/06/09 15:32:12;;;;;;;;;;;;;;;23.35;43.75;95222.84;10311563;28;1028;-63
2023/06/09 15:37:12;;;;;;;;;;;;;;;23.36;43.63;95224.41;10308050;28;1409;-64
2023/06/09 15:42:13;;;;;;;;;;;;;;;23.36;43.56;95228.91;10307552;28;5149;-63
2023/06/09 15:47:13;;;;;;;;;;;;;;;23.36;43.75;95228.91;10314431;28;1136;-63
2023/06/09 15:52:13;;;;;;;;;;;;;;;23.37;43.83;95227.81;10314652;28;1707;-63
2023/06/09 15:57:14;;;;;;;;;;;;;;;23.37;43.85;95225.16;10313157;28;2442;-64
2023/06/09 16:02:14;;;;;;;;;;;;;;;23.36;43.89;95229.69;10307562;28;2035;-64
2023/06/09 16:07:14;;;;;;;;;;;;;;;23.36;43.63;95227.06;10311246;28;1405;-65
2023/06/09 16:12:14;;;;;;;;;;;;;;;23.37;43.80;95233.09;10301503;28;1366;-64
2023/06/09 16:17:15;;;;;;;;;;;;;;;23.36;43.66;95228.91;10313900;28;1238;-64
2023/06/09 16:22:15;;;;;;;;;;;;;;;23.36;43.59;95220.97;10309123;28;1985;-65
2023/06/09 16:27:16;;;;;;;;;;;;;;;23.36;43.83;95223.63;10314498;28;1119;-65
2023/06/09 16:32:16;;;;;;;;;;;;;;;23.36;43.86;95223.63;10317934;28;1567;-65
2023/06/09 16:37:16;;;;;;;;;;;;;;;23.36;43.56;95234.97;10321029;28;1159;-65
2023/06/09 16:42:16;;;;;;;;;;;;;;;23.36;43.73;95223.63;10306524;28;5212;-67
2023/06/09 16:47:17;;;;;;;;;;;;;;;23.36;43.63;95224.41;10320885;28;1202;-64
2023/06/09 16:52:17;;;;;;;;;;;;;;;23.36;43.65;95223.63;10317408;28;2440;-65
2023/06/09 16:57:17;;;;;;;;;;;;;;;23.36;43.76;95223.63;10320836;28;1219;-65
2023/06/09 17:02:20;;;;;;;;;;;;;;;23.36;43.72;95224.41;10308046;28;1903;-64
2023/06/09 17:07:20;;;;;;;;;;;;;;;23.36;43.68;95218.31;10318908;28;1433;-65
2023/06/09 17:12:21;;;;;;;;;;;;;;;23.36;43.59;95228.91;10307130;28;1398;-65
2023/06/09 17:17:21;;;;;;;;;;;;;;;23.36;43.63;95223.63;10319182;28;1147;-65
2023/06/09 17:22:21;;;;;;;;;;;;;;;23.36;43.85;95223.63;10317031;28;1923;-65
2023/06/09 17:27:22;;;;;;;;;;;;;;;23.37;43.93;95219.88;10318670;28;1139;-65
2023/06/09 17:32:22;;;;;;;;;;;;;;;23.36;43.70;95234.19;10315613;28;1367;-65
2023/06/09 17:37:22;;;;;;;;;;;;;;;23.37;43.54;95227.81;10310741;28;1464;-65
2023/06/09 17:42:22;;;;;;;;;;;;;;;23.37;43.68;95230.44;10317750;28;5763;-65
2023/06/09 17:47:23;;;;;;;;;;;;;;;23.37;43.61;95235.75;10318242;28;1090;-65
2023/06/09 17:52:23;;;;;;;;;;;;;;;23.36;43.54;95223.63;10311124;28;2631;-64
2023/06/09 17:57:23;;;;;;;;;;;;;;;23.36;43.62;95231.56;10294247;28;1460;-65
2023/06/09 18:02:24;;;;;;;;;;;;;;;23.35;43.68;95230.75;10316905;28;1944;-65
2023/06/09 18:07:25;;;;;;;;;;;;;;;23.36;43.69;95234.19;10315822;28;1310;-65
2023/06/09 18:12:25;;;;;;;;;;;;;;;23.36;43.75;95234.19;10312159;28;1421;-64
2023/06/09 18:17:25;;;;;;;;;;;;;;;23.36;43.58;95229.69;10316856;28;1096;-65
2023/06/09 18:22:25;;;;;;;;;;;;;;;23.35;43.41;95222.84;10308800;28;1899;-65
2023/06/09 18:27:26;;;;;;;;;;;;;;;23.36;43.37;95234.19;10295206;28;1648;-65
2023/06/09 18:32:30;;;;;;;;;;;;;;;23.36;43.28;95226.25;10319584;28;1135;-65
2023/06/09 18:37:30;;;;;;;;;;;;;;;23.36;43.38;95228.91;10308499;28;1425;-65
2023/06/09 18:42:30;;;;;;;;;;;;;;;23.35;43.37;95232.63;10308058;28;5109;-64
2023/06/09 18:47:31;;;;;;;;;;;;;;;23.35;43.34;95232.63;10315666;28;2328;-65
2023/06/09 18:52:32;;;;;;;;;;;;;;;23.35;43.41;95230.75;10314907;28;1397;-65
2023/06/09 18:57:36;;;;;;;;;;;;;;;23.35;43.26;95228.13;10315933;28;1136;-65
2023/06/09 19:02:37;;;;;;;;;;;;;;;23.35;43.34;95237.91;10313954;28;1891;-65
2023/06/09 19:07:37;;;;;;;;;;;;;;;;;;10314713;28;1386;-65
2023/06/09 19:12:38;;;;;;;;;;;;;;;23.35;43.50;95244.00;10296798;28;1360;-64
2023/06/09 19:17:39;;;;;;;;;;;;;;;;;;10314924;28;1230;-65
2023/06/09 19:22:39;;;;;;;;;;;;;;;23.36;43.45;95247.41;10312546;28;1956;-65
2023/06/09 19:27:40;;;;;;;;;;;;;;;23.35;43.36;95259.06;10313283;28;1361;-63
2023/06/09 19:32:40;;;;;;;;;;;;;;;23.35;43.43;95259.06;10310958;28;1172;-65
2023/06/09 19:37:40;;;;;;;;;;;;;;;23.35;43.26;95270.44;10307902;28;1346;-65
2023/06/09 19:42:40;;;;;;;;;;;;;;;23.35;43.24;95273.09;10299276;28;5075;-65
2023/06/09 19:47:41;;;;;;;;;;;;;;;;;;10314397;28;1127;-65
2023/06/09 19:52:41;;;;;;;;;;;;;;;;;;10313978;28;1438;-65
2023/06/09 19:57:41;;;;;;;;;;;;;;;23.34;43.24;95273.38;10308062;28;1425;-63
2023/06/09 20:02:42;;;;;;;;;;;;;;;;;;10297198;28;1899;-63
2023/06/09 20:07:42;;;;;;;;;;;;;;;;;;10311584;28;1330;-63
2023/06/09 20:12:42;;;;;;;;;;;;;;;23.35;43.37;95282.88;10312522;28;1430;-63
2023/06/09 20:17:42;;;;;;;;;;;;;;;23.34;43.35;95283.97;10314296;28;1096;-63
2023/06/09 20:22:43;;;;;;;;;;;;;;;23.35;43.33;95282.88;10308711;28;1886;-63
2023/06/09 20:27:43;;;;;;;;;;;;;;;23.35;43.27;95281.03;10312719;28;1374;-63
2023/06/09 20:32:43;;;;;;;;;;;;;;;23.35;43.33;95282.88;10304299;28;1163;-63
2023/06/09 20:37:44;;;;;;;;;;;;;;;23.36;43.52;95284.44;10312799;28;2408;-63
2023/06/09 20:42:45;;;;;;;;;;;;;;;23.36;43.26;95284.44;10312052;28;5203;-63
2023/06/09 20:47:45;;;;;;;;;;;;;;;23.36;43.49;95281.81;10313822;28;1151;-63
2023/06/09 20:52:45;;;;;;;;;;;;;;;23.36;43.20;95287.09;10312037;28;1358;-64
2023/06/09 20:57:45;;;;;;;;;;;;;;;23.35;43.54;95288.16;10307734;28;1364;-63
2023/06/09 21:02:47;;;;;;;;;;;;;;;23.36;43.37;95293.19;10312700;28;1968;-63
2023/06/09 21:07:48;;;;;;;;;;;;;;;23.35;43.54;95299.53;10312893;28;1418;-63
2023/06/09 21:12:48;;;;;;;;;;;;;;;23.35;43.27;95296.09;10315273;28;1407;-63
2023/06/09 21:17:49;;;;;;;;;;;;;;;23.36;43.40;95293.19;10317260;28;1262;-63
2023/06/09 21:22:49;;;;;;;;;;;;;;;23.37;43.09;95283.34;10313318;28;1910;-64
2023/06/09 21:27:49;;;;;;;;;;;;;;;23.37;43.19;95293.94;10320347;28;1237;-63
2023/06/09 21:32:49;;;;;;;;;;;;;;;23.37;43.41;95294.72;10316571;28;1350;-63
2023/06/09 21:37:50;;;;;;;;;;;;;;;23.37;43.36;95288.66;10319175;28;2777;-63
2023/06/09 21:42:51;;;;;;;;;;;;;;;23.37;43.16;95299.22;10311891;28;5699;-63
2023/06/09 21:47:51;;;;;;;;;;;;;;;23.37;43.16;95302.66;10315186;28;1155;-63
2023/06/09 21:52:51;;;;;;;;;;;;;;;23.37;43.22;95304.50;10310252;28;1514;-64
2023/06/09 21:57:51;;;;;;;;;;;;;;;23.37;43.34;95305.31;10318231;28;1235;-63
2023/06/09 22:02:52;;;;;;;;;;;;;;;23.37;43.09;95309.81;10316805;28;1895;-63
2023/06/09 22:07:52;;;;;;;;;;;;;;;23.38;43.40;95308.72;10317727;28;1238;-63
2023/06/09 22:12:52;;;;;;;;;;;;;;;23.37;43.16;95296.56;10314919;28;1386;-63
2023/06/09 22:17:53;;;;;;;;;;;;;;;23.37;43.10;95301.88;10311321;28;1378;-63
2023/06/09 22:22:53;;;;;;;;;;;;;;;23.38;43.14;95298.16;10316929;28;1902;-64
2023/06/09 22:27:53;;;;;;;;;;;;;;;23.37;43.35;95293.94;10312005;28;1418;-64
2023/06/09 22:32:54;;;;;;;;;;;;;;;23.37;43.14;95296.56;10319096;28;2337;-63
2023/06/09 22:37:54;;;;;;;;;;;;;;;23.39;43.11;95302.34;10312615;28;1402;-63
2023/06/09 22:42:55;;;;;;;;;;;;;;;23.37;43.14;95294.72;10315271;28;5237;-64
2023/06/09 22:47:55;;;;;;;;;;;;;;;23.37;43.13;95296.56;10317335;28;1166;-63
2023/06/09 22:52:56;;;;;;;;;;;;;;;23.37;43.16;95297.38;10311188;28;1394;-63
2023/06/09 22:57:56;;;;;;;;;;;;;;;23.37;43.26;95299.22;10309722;28;1068;-64
2023/06/09 23:02:56;;;;;;;;;;;;;;;23.37;43.41;95296.56;10314968;28;1954;-63
2023/06/09 23:07:56;;;;;;;;;;;;;;;23.38;43.18;95295.50;10311143;28;1402;-63
2023/06/09 23:12:57;;;;;;;;;;;;;;;23.38;43.23;95295.50;10310098;28;1381;-64
2023/06/09 23:17:58;;;;;;;;;;;;;;;23.38;43.22;95296.28;10315625;28;1057;-63
2023/06/09 23:22:59;;;;;;;;;;;;;;;23.38;43.56;95287.56;10307311;28;1957;-64
2023/06/09 23:27:59;;;;;;;;;;;;;;;23.37;43.14;95289.44;10315240;28;2258;-63
2023/06/09 23:32:59;;;;;;;;;;;;;;;23.38;43.51;95287.56;10315138;28;1402;-63
2023/06/09 23:38:00;;;;;;;;;;;;;;;23.38;43.46;95284.94;10314868;28;1418;-64
2023/06/09 23:43:00;;;;;;;;;;;;;;;23.38;43.41;95284.94;10312925;28;5262;-64
2023/06/09 23:48:02;;;;;;;;;;;;;;;23.38;43.39;95285.72;10315384;28;1206;-63
2023/06/09 23:53:17;;;;;;;;;;;;;;;23.38;43.41;95274.34;10311057;28;1417;-63
2023/06/09 23:58:18;;;;;;;;;;;;;;;23.38;43.12;95275.13;10315458;28;1134;-63
